地図

経路データ

SID SEASON NUMBER BASIN SUBBASIN NAME ISO_TIME NATURE LAT LON WMO_WIND WMO_PRES WMO_AGENCY TRACK_TYPE DIST2LAND LANDFALL IFLAG USA_AGENCY USA_ATCF_ID USA_LAT USA_LON USA_RECORD USA_STATUS USA_WIND USA_PRES USA_SSHS USA_R34_NE USA_R34_SE USA_R34_SW USA_R34_NW USA_R50_NE USA_R50_SE USA_R50_SW USA_R50_NW USA_R64_NE USA_R64_SE USA_R64_SW USA_R64_NW USA_POCI USA_ROCI USA_RMW USA_EYE TOKYO_LAT TOKYO_LON TOKYO_GRADE TOKYO_WIND TOKYO_PRES TOKYO_R50_DIR TOKYO_R50_LONG TOKYO_R50_SHORT TOKYO_R30_DIR TOKYO_R30_LONG TOKYO_R30_SHORT TOKYO_LAND CMA_LAT CMA_LON CMA_CAT CMA_WIND CMA_PRES HKO_LAT HKO_LON HKO_CAT HKO_WIND HKO_PRES NEWDELHI_LAT NEWDELHI_LON NEWDELHI_GRADE NEWDELHI_WIND NEWDELHI_PRES NEWDELHI_CI NEWDELHI_DP NEWDELHI_POCI REUNION_LAT REUNION_LON REUNION_TYPE REUNION_WIND REUNION_PRES REUNION_TNUM REUNION_CI REUNION_RMW REUNION_R34_NE REUNION_R34_SE REUNION_R34_SW REUNION_R34_NW REUNION_R50_NE REUNION_R50_SE REUNION_R50_SW REUNION_R50_NW REUNION_R64_NE REUNION_R64_SE REUNION_R64_SW REUNION_R64_NW BOM_LAT BOM_LON BOM_TYPE BOM_WIND BOM_PRES BOM_TNUM BOM_CI BOM_RMW BOM_R34_NE BOM_R34_SE BOM_R34_SW BOM_R34_NW BOM_R50_NE BOM_R50_SE BOM_R50_SW BOM_R50_NW BOM_R64_NE BOM_R64_SE BOM_R64_SW BOM_R64_NW BOM_ROCI BOM_POCI BOM_EYE BOM_POS_METHOD BOM_PRES_METHOD NADI_LAT NADI_LON NADI_CAT NADI_WIND NADI_PRES WELLINGTON_LAT WELLINGTON_LON WELLINGTON_WIND WELLINGTON_PRES DS824_LAT DS824_LON DS824_STAGE DS824_WIND DS824_PRES TD9636_LAT TD9636_LON TD9636_STAGE TD9636_WIND TD9636_PRES TD9635_LAT TD9635_LON TD9635_WIND TD9635_PRES TD9635_ROCI NEUMANN_LAT NEUMANN_LON NEUMANN_CLASS NEUMANN_WIND NEUMANN_PRES MLC_LAT MLC_LON MLC_CLASS MLC_WIND MLC_PRES USA_GUST BOM_GUST BOM_GUST_PER REUNION_GUST REUNION_GUST_PER USA_SEAHGT USA_SEARAD_NE USA_SEARAD_SE USA_SEARAD_SW USA_SEARAD_NW STORM_SPEED STORM_DIR
1901286N17087 1901 38 NI BB NOT_NAMED 1901-10-13 00:00:00 TS 16.8000 87.3000 main 363 346 _________O____ -1 16.8000 87.3000 TC 30 5 278
1901286N17087 1901 38 NI BB NOT_NAMED 1901-10-13 03:00:00 TS 16.8334 87.0384 main 338 307 _________PO___ -1 16.8501 86.9075 TC 30 16.8000 87.3000 1 6 277
1901286N17087 1901 38 NI BB NOT_NAMED 1901-10-13 06:00:00 TS 16.8801 86.6588 main 307 276 _________OP___ -1 16.9000 86.5000 TC 30 16.8503 86.8970 1 8 277
1901286N17087 1901 38 NI BB NOT_NAMED 1901-10-13 09:00:00 TS 16.9286 86.2450 main 269 238 _________PP___ -1 16.9499 86.0650 TC 30 16.9002 86.4851 1 8 277
1901286N17087 1901 38 NI BB NOT_NAMED 1901-10-13 12:00:00 TS 16.9750 85.8278 main 231 200 _________OP___ -1 17.0000 85.6000 TC 30 16.9500 86.0556 1 9 276
1901286N17087 1901 38 NI BB NOT_NAMED 1901-10-13 15:00:00 TS 17.0250 85.3500 main 193 158 _________PO___ -1 17.0500 85.1000 TC 30 17.0000 85.6000 1 9 276
1901286N17087 1901 38 NI BB NOT_NAMED 1901-10-13 18:00:00 TS 17.0751 84.8575 main 158 130 _________OP___ -1 17.1000 84.6000 TC 30 17.0502 85.1150 1 9 276
1901286N17087 1901 38 NI BB NOT_NAMED 1901-10-13 21:00:00 TS 17.1251 84.3737 main 130 84 _________PP___ -1 17.1499 84.1275 TC 30 17.1003 84.6200 1 9 276
1901286N17087 1901 38 NI BB NOT_NAMED 1901-10-14 00:00:00 TS 17.1751 83.9200 main 84 54 _________OP___ -1 17.2000 83.7000 TC 30 17.1502 84.1400 1 8 277
1901286N17087 1901 38 NI BB NOT_NAMED 1901-10-14 03:00:00 TS 17.2249 83.5137 main 54 30 _________PO___ -1 17.2499 83.3275 TC 30 17.2000 83.7000 1 7 278
1901286N17087 1901 38 NI BB NOT_NAMED 1901-10-14 06:00:00 TS 17.2747 83.1639 main 30 15 _________OP___ -1 17.3000 83.0000 TC 30 17.2495 83.3277 1 6 279
1901286N17087 1901 38 NI BB NOT_NAMED 1901-10-14 09:00:00 TS 17.3246 82.8449 main 11 0 _________PP___ -1 17.3499 82.6925 TC 30 17.2994 82.9974 1 6 280
1901286N17087 1901 38 NI BB NOT_NAMED 1901-10-14 12:00:00 TS 17.3748 82.5467 main 0 0 _________OP___ -1 17.4000 82.4000 TC 30 17.3496 82.6934 1 6 280
1901286N17087 1901 38 NI BB NOT_NAMED 1901-10-14 15:00:00 TS 17.4250 82.2500 main 0 0 _________PO___ -1 17.4500 82.1000 TC 30 17.4000 82.4000 1 6 278
1901286N17087 1901 38 NI BB NOT_NAMED 1901-10-14 18:00:00 TS 17.4564 81.9643 main 0 0 _________OP___ -1 17.5000 81.8000 TC 30 17.4128 82.1286 1 5 276
1901286N17087 1901 38 NI BB NOT_NAMED 1901-10-14 21:00:00 TS 17.4794 81.6980 main 0 0 _________PP___ -1 17.5272 81.5373 TC 30 17.4315 81.8587 1 6 279
1901286N17087 1901 38 NI BB NOT_NAMED 1901-10-15 00:00:00 TS 17.5423 81.3798 main 0 0 _________OP___ -1 17.6000 81.2000 TC 30 17.4845 81.5595 1 8 285
1901286N17087 1901 38 NI BB NOT_NAMED 1901-10-15 03:00:00 TS 17.6776 80.9400 main 0 0 _________PO___ -1 17.7552 80.6799 TC 30 17.6000 81.2000 1 10 291
1901286N17087 1901 38 NI BB NOT_NAMED 1901-10-15 06:00:00 TS 17.8993 80.4160 main 0 0 _________OP___ -1 18.0000 80.1000 TC 30 17.7986 80.7319 1 11 298
1901286N17087 1901 38 NI BB NOT_NAMED 1901-10-15 09:00:00 TS 18.1940 79.8977 main 0 0 _________PP___ -1 18.3273 79.5925 TC 30 18.0606 80.2029 1 12 303
1901286N17087 1901 38 NI BB NOT_NAMED 1901-10-15 12:00:00 TS 18.5336 79.3737 main 0 0 _________OP___ -1 18.7000 79.1000 TC 30 18.3673 79.6473 1 12 304
1901286N17087 1901 38 NI BB NOT_NAMED 1901-10-15 15:00:00 TS 18.8750 78.8462 main 0 0 _________PO___ -1 19.0499 78.5923 TC 30 18.7000 79.1000 1 12 306
1901286N17087 1901 38 NI BB NOT_NAMED 1901-10-15 18:00:00 TS 19.2115 78.3770 main 0 0 _________OP___ -1 19.4000 78.1000 TC 30 19.0229 78.6540 1 11 309
1901286N17087 1901 38 NI AS NOT_NAMED 1901-10-15 21:00:00 TS 19.5548 77.9511 main 0 0 _________PP___ -1 19.7419 77.6868 TC 30 19.3678 78.2154 1 11 310
1901286N17087 1901 38 NI AS NOT_NAMED 1901-10-16 00:00:00 TS 19.9144 77.4721 main 0 0 _________OP___ -1 20.1000 77.2000 TC 30 19.7288 77.7442 1 13 306
1901286N17087 1901 38 NI AS NOT_NAMED 1901-10-16 03:00:00 TS 20.3001 76.8476 main 0 0 _________PO___ -1 20.5002 76.4951 TC 30 20.1000 77.2000 1 15 302
1901286N17087 1901 38 NI AS NOT_NAMED 1901-10-16 06:00:00 TS 20.6962 76.1189 main 0 0 _________OP___ -1 20.9000 75.7000 TC 30 20.4924 76.5378 1 16 300
1901286N17087 1901 38 NI AS NOT_NAMED 1901-10-16 09:00:00 TS 21.0799 75.3778 main 0 0 _________PP___ -1 21.2721 74.9572 TC 30 20.8877 75.7984 1 16 298
1901286N17087 1901 38 NI AS NOT_NAMED 1901-10-16 12:00:00 TS 21.4320 74.6048 main 0 0 _________OP___ -1 21.6000 74.2000 TC 30 21.2640 75.0096 1 16 294
1901286N17087 1901 38 NI AS NOT_NAMED 1901-10-16 15:00:00 TS 21.7361 73.8036 main 0 0 _________PO___ -1 21.8722 73.4072 TC 30 21.6000 74.2000 1 15 291
1901286N17087 1901 38 NI AS NOT_NAMED 1901-10-16 18:00:00 TS 21.9747 73.0534 main 0 0 _________OP___ -1 22.1000 72.6000 TC 30 21.8807 73.3935 1 15 288
1901286N17087 1901 38 NI AS NOT_NAMED 1901-10-16 21:00:00 TS 22.1911 72.2750 main 0 0 _________PP___ -1 22.3057 71.7980 TC 30 22.1148 72.5930 1 15 286
1901286N17087 1901 38 NI AS NOT_NAMED 1901-10-17 00:00:00 TS 22.3776 71.5307 main 0 0 _________OP___ -1 22.5000 71.0000 TC 30 22.3164 71.7960 1 12 285
1901286N17087 1901 38 NI AS NOT_NAMED 1901-10-17 03:00:00 NR 22.5000 71.0000 main 0 __________O___ -1 TC 22.5000 71.0000 1 10 284

IBTrACS Databaseについて

本データベースは、米国NOAAが公開する1842年以降の世界の熱帯低気圧のベストトラックデータアーカイブInternational Best Track Archive for Climate Stewardship (IBTrACS)を、ウェブで閲覧しやすい形式に変換したものです。

最終更新日:2021-12-01